sensor_id;sensor_type;location;lat;lon;timestamp;P1;durP1;ratioP1;P2;durP2;ratioP2
18752;SDS011;9505;50.882;5.350;2023-04-29T00:00:13;115.47;;;30.40;;
18752;SDS011;9505;50.882;5.350;2023-04-29T00:02:39;109.00;;;30.10;;
18752;SDS011;9505;50.882;5.350;2023-04-29T00:05:05;99.47;;;28.92;;
18752;SDS011;9505;50.882;5.350;2023-04-29T00:07:31;95.63;;;29.52;;
18752;SDS011;9505;50.882;5.350;2023-04-29T00:09:57;114.90;;;32.50;;
18752;SDS011;9505;50.882;5.350;2023-04-29T00:12:23;96.13;;;28.92;;
18752;SDS011;9505;50.882;5.350;2023-04-29T00:14:48;107.10;;;29.83;;
18752;SDS011;9505;50.882;5.350;2023-04-29T00:17:14;104.47;;;29.42;;
18752;SDS011;9505;50.882;5.350;2023-04-29T00:19:40;108.53;;;30.50;;
18752;SDS011;9505;50.882;5.350;2023-04-29T00:22:06;115.13;;;30.02;;
18752;SDS011;9505;50.882;5.350;2023-04-29T00:24:31;101.03;;;27.52;;
18752;SDS011;9505;50.882;5.350;2023-04-29T00:26:57;96.75;;;27.15;;
18752;SDS011;9505;50.882;5.350;2023-04-29T00:29:23;99.20;;;28.15;;
18752;SDS011;9505;50.882;5.350;2023-04-29T00:31:49;107.03;;;28.65;;
18752;SDS011;9505;50.882;5.350;2023-04-29T00:34:14;95.47;;;26.88;;
18752;SDS011;9505;50.882;5.350;2023-04-29T00:36:40;92.03;;;25.65;;
18752;SDS011;9505;50.882;5.350;2023-04-29T00:39:06;122.22;;;29.10;;
18752;SDS011;9505;50.882;5.350;2023-04-29T00:41:32;105.40;;;28.50;;
18752;SDS011;9505;50.882;5.350;2023-04-29T00:43:57;120.75;;;29.67;;
18752;SDS011;9505;50.882;5.350;2023-04-29T00:46:23;103.03;;;27.80;;
18752;SDS011;9505;50.882;5.350;2023-04-29T00:48:49;112.75;;;29.95;;
18752;SDS011;9505;50.882;5.350;2023-04-29T00:51:15;96.80;;;26.52;;
18752;SDS011;9505;50.882;5.350;2023-04-29T00:53:42;96.63;;;28.90;;
18752;SDS011;9505;50.882;5.350;2023-04-29T00:56:08;109.07;;;28.27;;
18752;SDS011;9505;50.882;5.350;2023-04-29T00:58:35;111.53;;;29.05;;
18752;SDS011;9505;50.882;5.350;2023-04-29T01:01:03;107.47;;;27.77;;
18752;SDS011;9505;50.882;5.350;2023-04-29T01:03:29;101.25;;;27.05;;
18752;SDS011;9505;50.882;5.350;2023-04-29T01:06:11;117.63;;;28.40;;
18752;SDS011;9505;50.882;5.350;2023-04-29T01:14:19;103.68;;;26.98;;
18752;SDS011;9505;50.882;5.350;2023-04-29T01:16:50;100.50;;;26.50;;
18752;SDS011;9505;50.882;5.350;2023-04-29T01:22:20;94.65;;;26.05;;
18752;SDS011;9505;50.882;5.350;2023-04-29T01:24:47;83.45;;;26.02;;
18752;SDS011;9505;50.882;5.350;2023-04-29T01:27:20;87.20;;;25.00;;
18752;SDS011;9505;50.882;5.350;2023-04-29T01:30:00;94.22;;;25.63;;
18752;SDS011;9505;50.882;5.350;2023-04-29T01:32:36;100.80;;;26.73;;
18752;SDS011;9505;50.882;5.350;2023-04-29T01:41:09;96.97;;;26.25;;
18752;SDS011;9505;50.882;5.350;2023-04-29T01:43:39;83.82;;;25.95;;
18752;SDS011;9505;50.882;5.350;2023-04-29T01:46:06;79.20;;;23.55;;
18752;SDS011;9505;50.882;5.350;2023-04-29T01:48:34;97.13;;;25.60;;
18752;SDS011;9505;50.882;5.350;2023-04-29T01:51:00;85.95;;;25.67;;
18752;SDS011;9505;50.882;5.350;2023-04-29T01:53:26;82.13;;;23.98;;
18752;SDS011;9505;50.882;5.350;2023-04-29T01:55:52;94.20;;;25.98;;
18752;SDS011;9505;50.882;5.350;2023-04-29T01:58:18;92.28;;;24.52;;
18752;SDS011;9505;50.882;5.350;2023-04-29T02:00:43;90.78;;;24.42;;
18752;SDS011;9505;50.882;5.350;2023-04-29T02:03:09;102.30;;;25.35;;
18752;SDS011;9505;50.882;5.350;2023-04-29T02:05:34;81.45;;;24.02;;
18752;SDS011;9505;50.882;5.350;2023-04-29T02:08:00;92.53;;;25.25;;
18752;SDS011;9505;50.882;5.350;2023-04-29T02:10:26;83.05;;;23.70;;
18752;SDS011;9505;50.882;5.350;2023-04-29T02:12:52;89.28;;;25.05;;
18752;SDS011;9505;50.882;5.350;2023-04-29T02:15:18;92.07;;;24.65;;
18752;SDS011;9505;50.882;5.350;2023-04-29T02:17:45;90.28;;;25.20;;
18752;SDS011;9505;50.882;5.350;2023-04-29T02:20:11;89.88;;;24.35;;
18752;SDS011;9505;50.882;5.350;2023-04-29T02:22:37;76.20;;;24.00;;
18752;SDS011;9505;50.882;5.350;2023-04-29T02:25:03;100.15;;;27.13;;
18752;SDS011;9505;50.882;5.350;2023-04-29T02:27:29;97.35;;;25.73;;
18752;SDS011;9505;50.882;5.350;2023-04-29T02:29:54;89.82;;;24.17;;
18752;SDS011;9505;50.882;5.350;2023-04-29T02:32:20;85.55;;;23.60;;
18752;SDS011;9505;50.882;5.350;2023-04-29T02:34:46;87.43;;;24.25;;
18752;SDS011;9505;50.882;5.350;2023-04-29T02:37:11;93.88;;;23.60;;
18752;SDS011;9505;50.882;5.350;2023-04-29T02:39:37;92.95;;;26.40;;
18752;SDS011;9505;50.882;5.350;2023-04-29T02:42:02;93.40;;;24.35;;
18752;SDS011;9505;50.882;5.350;2023-04-29T02:44:28;84.40;;;23.38;;
18752;SDS011;9505;50.882;5.350;2023-04-29T02:46:55;88.75;;;23.70;;
18752;SDS011;9505;50.882;5.350;2023-04-29T02:49:21;100.72;;;24.40;;
18752;SDS011;9505;50.882;5.350;2023-04-29T02:51:47;86.57;;;22.90;;
18752;SDS011;9505;50.882;5.350;2023-04-29T02:54:14;85.43;;;24.42;;
18752;SDS011;9505;50.882;5.350;2023-04-29T02:56:40;86.32;;;24.05;;
18752;SDS011;9505;50.882;5.350;2023-04-29T02:59:06;89.75;;;24.27;;
18752;SDS011;9505;50.882;5.350;2023-04-29T03:01:32;92.65;;;25.40;;
18752;SDS011;9505;50.882;5.350;2023-04-29T03:03:58;98.18;;;26.80;;
18752;SDS011;9505;50.882;5.350;2023-04-29T03:06:23;83.90;;;25.95;;
18752;SDS011;9505;50.882;5.350;2023-04-29T03:08:49;85.22;;;26.05;;
18752;SDS011;9505;50.882;5.350;2023-04-29T03:11:16;96.03;;;27.90;;
18752;SDS011;9505;50.882;5.350;2023-04-29T03:13:42;103.93;;;28.73;;
18752;SDS011;9505;50.882;5.350;2023-04-29T03:16:07;106.00;;;30.45;;
18752;SDS011;9505;50.882;5.350;2023-04-29T03:18:33;106.20;;;29.60;;
18752;SDS011;9505;50.882;5.350;2023-04-29T03:20:59;104.10;;;31.25;;
18752;SDS011;9505;50.882;5.350;2023-04-29T03:23:25;104.32;;;30.90;;
18752;SDS011;9505;50.882;5.350;2023-04-29T03:25:51;115.90;;;31.52;;
18752;SDS011;9505;50.882;5.350;2023-04-29T03:28:19;120.28;;;33.10;;
18752;SDS011;9505;50.882;5.350;2023-04-29T03:30:45;125.13;;;33.35;;
18752;SDS011;9505;50.882;5.350;2023-04-29T03:33:10;121.78;;;34.63;;
18752;SDS011;9505;50.882;5.350;2023-04-29T03:35:36;126.25;;;34.28;;
18752;SDS011;9505;50.882;5.350;2023-04-29T03:38:02;114.95;;;35.17;;
18752;SDS011;9505;50.882;5.350;2023-04-29T03:40:27;122.15;;;34.50;;
18752;SDS011;9505;50.882;5.350;2023-04-29T03:42:53;126.10;;;36.38;;
18752;SDS011;9505;50.882;5.350;2023-04-29T03:45:19;127.47;;;35.90;;
18752;SDS011;9505;50.882;5.350;2023-04-29T03:47:45;131.20;;;36.30;;
18752;SDS011;9505;50.882;5.350;2023-04-29T03:50:10;137.32;;;36.20;;
18752;SDS011;9505;50.882;5.350;2023-04-29T03:52:36;132.30;;;37.60;;
18752;SDS011;9505;50.882;5.350;2023-04-29T03:55:02;128.30;;;39.33;;
18752;SDS011;9505;50.882;5.350;2023-04-29T03:57:28;144.55;;;38.42;;
18752;SDS011;9505;50.882;5.350;2023-04-29T03:59:53;143.48;;;41.17;;
18752;SDS011;9505;50.882;5.350;2023-04-29T04:02:19;151.40;;;41.15;;
18752;SDS011;9505;50.882;5.350;2023-04-29T04:04:45;120.28;;;36.50;;
18752;SDS011;9505;50.882;5.350;2023-04-29T04:07:11;142.48;;;39.70;;
18752;SDS011;9505;50.882;5.350;2023-04-29T04:09:36;133.65;;;39.15;;
18752;SDS011;9505;50.882;5.350;2023-04-29T04:12:02;139.55;;;39.65;;
18752;SDS011;9505;50.882;5.350;2023-04-29T04:14:28;144.55;;;41.35;;
18752;SDS011;9505;50.882;5.350;2023-04-29T04:16:54;150.32;;;40.85;;
18752;SDS011;9505;50.882;5.350;2023-04-29T04:19:20;157.43;;;41.47;;
18752;SDS011;9505;50.882;5.350;2023-04-29T04:21:45;161.88;;;44.38;;
18752;SDS011;9505;50.882;5.350;2023-04-29T04:24:11;158.38;;;42.90;;
18752;SDS011;9505;50.882;5.350;2023-04-29T04:26:37;161.60;;;41.85;;
18752;SDS011;9505;50.882;5.350;2023-04-29T04:29:02;161.70;;;40.97;;
18752;SDS011;9505;50.882;5.350;2023-04-29T04:31:29;160.35;;;42.97;;
18752;SDS011;9505;50.882;5.350;2023-04-29T04:33:55;146.65;;;41.40;;
18752;SDS011;9505;50.882;5.350;2023-04-29T04:36:21;146.38;;;38.00;;
18752;SDS011;9505;50.882;5.350;2023-04-29T04:38:47;138.77;;;38.28;;
18752;SDS011;9505;50.882;5.350;2023-04-29T04:41:13;148.13;;;37.17;;
18752;SDS011;9505;50.882;5.350;2023-04-29T04:43:38;134.63;;;35.30;;
18752;SDS011;9505;50.882;5.350;2023-04-29T04:46:14;129.40;;;34.97;;
18752;SDS011;9505;50.882;5.350;2023-04-29T04:48:40;126.70;;;34.40;;
18752;SDS011;9505;50.882;5.350;2023-04-29T04:51:09;132.82;;;33.47;;
18752;SDS011;9505;50.882;5.350;2023-04-29T04:53:36;111.20;;;30.77;;
18752;SDS011;9505;50.882;5.350;2023-04-29T04:56:02;117.40;;;30.92;;
18752;SDS011;9505;50.882;5.350;2023-04-29T04:58:29;129.35;;;32.53;;
18752;SDS011;9505;50.882;5.350;2023-04-29T05:00:56;132.05;;;33.35;;
18752;SDS011;9505;50.882;5.350;2023-04-29T05:03:21;130.38;;;34.47;;
18752;SDS011;9505;50.882;5.350;2023-04-29T05:05:56;122.47;;;32.58;;
18752;SDS011;9505;50.882;5.350;2023-04-29T05:08:22;133.80;;;35.13;;
18752;SDS011;9505;50.882;5.350;2023-04-29T05:10:49;119.55;;;33.88;;
18752;SDS011;9505;50.882;5.350;2023-04-29T05:13:15;131.30;;;36.33;;
18752;SDS011;9505;50.882;5.350;2023-04-29T05:15:41;134.20;;;36.13;;
18752;SDS011;9505;50.882;5.350;2023-04-29T05:18:07;126.70;;;35.28;;
18752;SDS011;9505;50.882;5.350;2023-04-29T05:20:32;143.07;;;37.17;;
18752;SDS011;9505;50.882;5.350;2023-04-29T05:22:58;130.48;;;36.05;;
18752;SDS011;9505;50.882;5.350;2023-04-29T05:25:24;136.10;;;36.50;;
18752;SDS011;9505;50.882;5.350;2023-04-29T05:27:49;135.93;;;35.47;;
18752;SDS011;9505;50.882;5.350;2023-04-29T05:30:15;133.98;;;34.63;;
18752;SDS011;9505;50.882;5.350;2023-04-29T05:32:42;139.35;;;36.15;;
18752;SDS011;9505;50.882;5.350;2023-04-29T05:35:09;137.07;;;35.55;;
18752;SDS011;9505;50.882;5.350;2023-04-29T05:37:35;137.13;;;36.20;;
18752;SDS011;9505;50.882;5.350;2023-04-29T05:40:01;142.38;;;35.72;;
18752;SDS011;9505;50.882;5.350;2023-04-29T05:42:28;144.65;;;37.40;;
18752;SDS011;9505;50.882;5.350;2023-04-29T05:44:53;125.75;;;33.83;;
18752;SDS011;9505;50.882;5.350;2023-04-29T05:47:19;137.23;;;36.83;;
18752;SDS011;9505;50.882;5.350;2023-04-29T05:49:45;127.38;;;34.22;;
18752;SDS011;9505;50.882;5.350;2023-04-29T05:52:10;133.10;;;35.08;;
18752;SDS011;9505;50.882;5.350;2023-04-29T05:54:36;110.90;;;32.15;;
18752;SDS011;9505;50.882;5.350;2023-04-29T05:57:01;113.65;;;33.90;;
18752;SDS011;9505;50.882;5.350;2023-04-29T05:59:30;121.78;;;33.08;;
18752;SDS011;9505;50.882;5.350;2023-04-29T06:01:57;124.30;;;34.92;;
18752;SDS011;9505;50.882;5.350;2023-04-29T06:04:23;126.82;;;33.45;;
18752;SDS011;9505;50.882;5.350;2023-04-29T06:06:49;100.70;;;28.40;;
18752;SDS011;9505;50.882;5.350;2023-04-29T06:09:20;102.32;;;27.10;;
18752;SDS011;9505;50.882;5.350;2023-04-29T06:11:46;89.38;;;25.55;;
18752;SDS011;9505;50.882;5.350;2023-04-29T06:14:12;92.20;;;24.50;;
18752;SDS011;9505;50.882;5.350;2023-04-29T06:16:38;93.30;;;24.08;;
18752;SDS011;9505;50.882;5.350;2023-04-29T06:19:04;85.32;;;24.10;;
18752;SDS011;9505;50.882;5.350;2023-04-29T06:21:29;96.65;;;23.77;;
18752;SDS011;9505;50.882;5.350;2023-04-29T06:23:55;86.38;;;23.33;;
18752;SDS011;9505;50.882;5.350;2023-04-29T06:26:22;76.88;;;23.02;;
18752;SDS011;9505;50.882;5.350;2023-04-29T06:28:48;79.22;;;23.08;;
18752;SDS011;9505;50.882;5.350;2023-04-29T06:31:13;85.75;;;22.33;;
18752;SDS011;9505;50.882;5.350;2023-04-29T06:33:39;85.25;;;23.65;;
18752;SDS011;9505;50.882;5.350;2023-04-29T06:36:05;81.45;;;21.77;;
18752;SDS011;9505;50.882;5.350;2023-04-29T06:38:31;75.53;;;20.77;;
18752;SDS011;9505;50.882;5.350;2023-04-29T06:40:57;79.53;;;20.73;;
18752;SDS011;9505;50.882;5.350;2023-04-29T06:43:25;87.25;;;22.05;;
18752;SDS011;9505;50.882;5.350;2023-04-29T06:45:51;79.05;;;21.20;;
18752;SDS011;9505;50.882;5.350;2023-04-29T06:48:17;79.43;;;22.05;;
18752;SDS011;9505;50.882;5.350;2023-04-29T06:51:00;68.95;;;19.67;;
18752;SDS011;9505;50.882;5.350;2023-04-29T06:53:26;75.25;;;19.52;;
18752;SDS011;9505;50.882;5.350;2023-04-29T06:55:52;85.90;;;20.45;;
18752;SDS011;9505;50.882;5.350;2023-04-29T06:58:18;80.80;;;19.70;;
18752;SDS011;9505;50.882;5.350;2023-04-29T07:00:44;68.30;;;19.40;;
18752;SDS011;9505;50.882;5.350;2023-04-29T07:03:14;86.60;;;20.45;;
18752;SDS011;9505;50.882;5.350;2023-04-29T07:05:41;61.50;;;18.05;;
18752;SDS011;9505;50.882;5.350;2023-04-29T07:08:09;64.70;;;19.70;;
18752;SDS011;9505;50.882;5.350;2023-04-29T07:10:37;72.28;;;19.90;;
18752;SDS011;9505;50.882;5.350;2023-04-29T07:13:03;82.50;;;20.30;;
18752;SDS011;9505;50.882;5.350;2023-04-29T07:15:29;76.22;;;20.35;;
18752;SDS011;9505;50.882;5.350;2023-04-29T07:17:57;73.97;;;20.58;;
18752;SDS011;9505;50.882;5.350;2023-04-29T07:20:24;82.30;;;21.95;;
18752;SDS011;9505;50.882;5.350;2023-04-29T07:22:50;85.60;;;22.65;;
18752;SDS011;9505;50.882;5.350;2023-04-29T07:25:15;68.75;;;20.27;;
18752;SDS011;9505;50.882;5.350;2023-04-29T07:27:41;72.78;;;21.75;;
18752;SDS011;9505;50.882;5.350;2023-04-29T07:30:07;86.55;;;22.17;;
18752;SDS011;9505;50.882;5.350;2023-04-29T07:32:33;73.78;;;20.98;;
18752;SDS011;9505;50.882;5.350;2023-04-29T07:34:59;69.68;;;20.92;;
18752;SDS011;9505;50.882;5.350;2023-04-29T07:37:24;73.78;;;21.48;;
18752;SDS011;9505;50.882;5.350;2023-04-29T07:39:50;80.40;;;23.15;;
18752;SDS011;9505;50.882;5.350;2023-04-29T07:42:16;97.72;;;25.50;;
18752;SDS011;9505;50.882;5.350;2023-04-29T07:44:42;85.55;;;24.25;;
18752;SDS011;9505;50.882;5.350;2023-04-29T07:47:09;80.43;;;23.25;;
18752;SDS011;9505;50.882;5.350;2023-04-29T07:49:38;85.50;;;23.50;;
18752;SDS011;9505;50.882;5.350;2023-04-29T07:52:04;83.35;;;22.60;;
18752;SDS011;9505;50.882;5.350;2023-04-29T07:54:30;79.50;;;21.15;;
18752;SDS011;9505;50.882;5.350;2023-04-29T07:56:59;82.20;;;22.75;;
18752;SDS011;9505;50.882;5.350;2023-04-29T07:59:25;82.22;;;21.77;;
18752;SDS011;9505;50.882;5.350;2023-04-29T08:01:51;65.30;;;20.45;;
18752;SDS011;9505;50.882;5.350;2023-04-29T08:04:17;69.00;;;19.83;;
18752;SDS011;9505;50.882;5.350;2023-04-29T08:06:43;73.30;;;21.17;;
18752;SDS011;9505;50.882;5.350;2023-04-29T08:09:09;72.55;;;20.38;;
18752;SDS011;9505;50.882;5.350;2023-04-29T08:11:35;73.05;;;20.67;;
18752;SDS011;9505;50.882;5.350;2023-04-29T08:14:00;63.90;;;18.98;;
18752;SDS011;9505;50.882;5.350;2023-04-29T08:16:26;67.30;;;18.80;;
18752;SDS011;9505;50.882;5.350;2023-04-29T08:18:52;66.93;;;18.58;;
18752;SDS011;9505;50.882;5.350;2023-04-29T08:21:18;55.85;;;17.63;;
18752;SDS011;9505;50.882;5.350;2023-04-29T08:23:44;64.82;;;16.83;;
18752;SDS011;9505;50.882;5.350;2023-04-29T08:26:10;71.88;;;17.80;;
18752;SDS011;9505;50.882;5.350;2023-04-29T08:28:37;61.35;;;17.23;;
18752;SDS011;9505;50.882;5.350;2023-04-29T08:31:03;146.10;;;23.52;;
18752;SDS011;9505;50.882;5.350;2023-04-29T08:33:32;101.32;;;19.70;;
18752;SDS011;9505;50.882;5.350;2023-04-29T08:35:59;79.15;;;17.45;;
18752;SDS011;9505;50.882;5.350;2023-04-29T08:38:27;65.55;;;16.50;;
18752;SDS011;9505;50.882;5.350;2023-04-29T08:40:53;52.63;;;15.60;;
18752;SDS011;9505;50.882;5.350;2023-04-29T08:43:18;108.82;;;21.27;;
18752;SDS011;9505;50.882;5.350;2023-04-29T08:45:45;110.35;;;21.85;;
18752;SDS011;9505;50.882;5.350;2023-04-29T08:48:13;90.25;;;19.95;;
18752;SDS011;9505;50.882;5.350;2023-04-29T08:50:40;75.22;;;18.13;;
18752;SDS011;9505;50.882;5.350;2023-04-29T08:53:07;64.55;;;16.38;;
18752;SDS011;9505;50.882;5.350;2023-04-29T08:55:40;94.97;;;19.67;;
18752;SDS011;9505;50.882;5.350;2023-04-29T08:58:07;102.47;;;20.38;;
18752;SDS011;9505;50.882;5.350;2023-04-29T09:00:34;87.88;;;20.02;;
18752;SDS011;9505;50.882;5.350;2023-04-29T09:03:03;66.50;;;17.90;;
18752;SDS011;9505;50.882;5.350;2023-04-29T09:05:36;84.72;;;19.33;;
18752;SDS011;9505;50.882;5.350;2023-04-29T09:08:03;59.33;;;16.88;;
18752;SDS011;9505;50.882;5.350;2023-04-29T09:10:29;69.00;;;16.45;;
18752;SDS011;9505;50.882;5.350;2023-04-29T09:12:56;102.55;;;19.77;;
18752;SDS011;9505;50.882;5.350;2023-04-29T09:15:24;99.00;;;19.33;;
18752;SDS011;9505;50.882;5.350;2023-04-29T09:17:50;70.18;;;17.20;;
18752;SDS011;9505;50.882;5.350;2023-04-29T09:22:48;78.25;;;17.95;;
18752;SDS011;9505;50.882;5.350;2023-04-29T09:25:15;92.70;;;19.05;;
18752;SDS011;9505;50.882;5.350;2023-04-29T09:27:41;95.95;;;20.38;;
18752;SDS011;9505;50.882;5.350;2023-04-29T09:30:07;76.90;;;17.60;;
18752;SDS011;9505;50.882;5.350;2023-04-29T09:32:33;61.30;;;16.52;;
18752;SDS011;9505;50.882;5.350;2023-04-29T09:37:51;110.90;;;20.42;;
18752;SDS011;9505;50.882;5.350;2023-04-29T09:42:57;72.22;;;16.10;;
18752;SDS011;9505;50.882;5.350;2023-04-29T09:45:35;50.55;;;13.18;;
18752;SDS011;9505;50.882;5.350;2023-04-29T09:48:03;76.22;;;16.25;;
18752;SDS011;9505;50.882;5.350;2023-04-29T09:50:30;54.13;;;13.63;;
18752;SDS011;9505;50.882;5.350;2023-04-29T09:52:56;74.70;;;15.45;;
18752;SDS011;9505;50.882;5.350;2023-04-29T09:55:23;75.10;;;16.35;;
18752;SDS011;9505;50.882;5.350;2023-04-29T09:57:48;91.55;;;17.15;;
18752;SDS011;9505;50.882;5.350;2023-04-29T10:00:14;62.38;;;14.95;;
18752;SDS011;9505;50.882;5.350;2023-04-29T10:02:40;58.03;;;14.65;;
18752;SDS011;9505;50.882;5.350;2023-04-29T10:05:07;92.03;;;16.90;;
18752;SDS011;9505;50.882;5.350;2023-04-29T10:07:34;89.65;;;16.50;;
18752;SDS011;9505;50.882;5.350;2023-04-29T10:10:03;70.57;;;14.13;;
18752;SDS011;9505;50.882;5.350;2023-04-29T10:12:30;37.83;;;11.25;;
18752;SDS011;9505;50.882;5.350;2023-04-29T10:20:28;92.55;;;15.90;;
18752;SDS011;9505;50.882;5.350;2023-04-29T10:22:54;81.38;;;15.75;;
18752;SDS011;9505;50.882;5.350;2023-04-29T10:25:23;50.20;;;12.65;;
18752;SDS011;9505;50.882;5.350;2023-04-29T10:27:50;47.22;;;13.02;;
18752;SDS011;9505;50.882;5.350;2023-04-29T10:30:17;68.90;;;14.75;;
18752;SDS011;9505;50.882;5.350;2023-04-29T10:32:44;93.30;;;17.27;;
18752;SDS011;9505;50.882;5.350;2023-04-29T10:35:12;86.07;;;15.93;;
18752;SDS011;9505;50.882;5.350;2023-04-29T10:37:42;55.15;;;13.63;;
18752;SDS011;9505;50.882;5.350;2023-04-29T10:40:17;50.60;;;12.68;;
18752;SDS011;9505;50.882;5.350;2023-04-29T10:42:49;69.43;;;14.85;;
18752;SDS011;9505;50.882;5.350;2023-04-29T10:51:12;40.92;;;10.27;;
18752;SDS011;9505;50.882;5.350;2023-04-29T10:53:13;82.47;;;14.82;;
18752;SDS011;9505;50.882;5.350;2023-04-29T10:55:40;68.32;;;13.27;;
18752;SDS011;9505;50.882;5.350;2023-04-29T11:01:26;89.32;;;14.65;;
18752;SDS011;9505;50.882;5.350;2023-04-29T11:04:06;49.30;;;11.70;;
18752;SDS011;9505;50.882;5.350;2023-04-29T11:09:04;76.55;;;14.70;;
18752;SDS011;9505;50.882;5.350;2023-04-29T11:11:55;78.00;;;14.50;;
18752;SDS011;9505;50.882;5.350;2023-04-29T11:17:09;58.90;;;13.15;;
18752;SDS011;9505;50.882;5.350;2023-04-29T11:19:40;46.90;;;13.05;;
18752;SDS011;9505;50.882;5.350;2023-04-29T11:27:17;47.90;;;12.98;;
18752;SDS011;9505;50.882;5.350;2023-04-29T11:29:46;43.72;;;12.57;;
18752;SDS011;9505;50.882;5.350;2023-04-29T11:32:14;40.92;;;11.48;;
18752;SDS011;9505;50.882;5.350;2023-04-29T11:34:40;48.63;;;12.98;;
18752;SDS011;9505;50.882;5.350;2023-04-29T11:37:05;47.15;;;12.57;;
18752;SDS011;9505;50.882;5.350;2023-04-29T11:39:34;46.08;;;13.25;;
18752;SDS011;9505;50.882;5.350;2023-04-29T11:42:06;51.30;;;12.80;;
18752;SDS011;9505;50.882;5.350;2023-04-29T11:44:32;49.60;;;12.77;;
18752;SDS011;9505;50.882;5.350;2023-04-29T11:47:03;52.20;;;12.38;;
18752;SDS011;9505;50.882;5.350;2023-04-29T11:49:30;50.55;;;12.38;;
18752;SDS011;9505;50.882;5.350;2023-04-29T11:51:57;62.40;;;14.55;;
18752;SDS011;9505;50.882;5.350;2023-04-29T11:54:26;62.35;;;13.85;;
18752;SDS011;9505;50.882;5.350;2023-04-29T11:56:53;49.42;;;12.18;;
18752;SDS011;9505;50.882;5.350;2023-04-29T11:59:19;65.75;;;13.75;;
18752;SDS011;9505;50.882;5.350;2023-04-29T12:01:46;47.38;;;11.98;;
18752;SDS011;9505;50.882;5.350;2023-04-29T12:04:12;97.50;;;17.52;;
18752;SDS011;9505;50.882;5.350;2023-04-29T12:06:38;91.10;;;16.67;;
18752;SDS011;9505;50.882;5.350;2023-04-29T12:09:05;67.50;;;14.35;;
18752;SDS011;9505;50.882;5.350;2023-04-29T12:11:31;48.88;;;12.90;;
18752;SDS011;9505;50.882;5.350;2023-04-29T12:13:56;93.88;;;16.63;;
18752;SDS011;9505;50.882;5.350;2023-04-29T12:16:25;93.15;;;16.65;;
18752;SDS011;9505;50.882;5.350;2023-04-29T12:18:53;79.10;;;15.55;;
18752;SDS011;9505;50.882;5.350;2023-04-29T12:21:20;52.38;;;12.38;;
18752;SDS011;9505;50.882;5.350;2023-04-29T12:23:46;48.90;;;12.18;;
18752;SDS011;9505;50.882;5.350;2023-04-29T12:26:12;94.72;;;16.70;;
18752;SDS011;9505;50.882;5.350;2023-04-29T12:28:39;87.20;;;15.57;;
18752;SDS011;9505;50.882;5.350;2023-04-29T12:31:07;70.13;;;14.27;;
18752;SDS011;9505;50.882;5.350;2023-04-29T12:33:34;41.38;;;11.70;;
18752;SDS011;9505;50.882;5.350;2023-04-29T12:35:59;53.03;;;11.98;;
18752;SDS011;9505;50.882;5.350;2023-04-29T12:38:26;80.85;;;15.05;;
18752;SDS011;9505;50.882;5.350;2023-04-29T12:40:57;88.15;;;15.50;;
18752;SDS011;9505;50.882;5.350;2023-04-29T12:43:28;76.32;;;14.70;;
18752;SDS011;9505;50.882;5.350;2023-04-29T12:46:04;64.93;;;14.18;;
18752;SDS011;9505;50.882;5.350;2023-04-29T12:48:32;91.25;;;16.75;;
18752;SDS011;9505;50.882;5.350;2023-04-29T12:50:59;60.80;;;12.90;;
18752;SDS011;9505;50.882;5.350;2023-04-29T12:53:25;60.85;;;12.27;;
18752;SDS011;9505;50.882;5.350;2023-04-29T12:55:53;72.38;;;13.55;;
18752;SDS011;9505;50.882;5.350;2023-04-29T12:58:18;90.20;;;15.82;;
18752;SDS011;9505;50.882;5.350;2023-04-29T13:00:45;75.50;;;13.82;;
18752;SDS011;9505;50.882;5.350;2023-04-29T13:03:10;49.55;;;11.75;;
18752;SDS011;9505;50.882;5.350;2023-04-29T13:05:36;81.03;;;14.35;;
18752;SDS011;9505;50.882;5.350;2023-04-29T13:08:02;101.40;;;16.95;;
18752;SDS011;9505;50.882;5.350;2023-04-29T13:10:30;85.35;;;15.98;;
18752;SDS011;9505;50.882;5.350;2023-04-29T13:12:57;60.90;;;13.93;;
18752;SDS011;9505;50.882;5.350;2023-04-29T13:15:22;57.75;;;12.70;;
18752;SDS011;9505;50.882;5.350;2023-04-29T13:17:48;91.32;;;15.77;;
18752;SDS011;9505;50.882;5.350;2023-04-29T13:20:15;79.30;;;14.80;;
18752;SDS011;9505;50.882;5.350;2023-04-29T13:22:41;59.25;;;13.75;;
18752;SDS011;9505;50.882;5.350;2023-04-29T13:25:08;53.88;;;11.68;;
18752;SDS011;9505;50.882;5.350;2023-04-29T13:27:35;62.15;;;12.80;;
18752;SDS011;9505;50.882;5.350;2023-04-29T13:30:01;93.43;;;15.88;;
18752;SDS011;9505;50.882;5.350;2023-04-29T13:32:27;79.53;;;14.82;;
18752;SDS011;9505;50.882;5.350;2023-04-29T13:34:53;48.22;;;11.23;;
18752;SDS011;9505;50.882;5.350;2023-04-29T13:37:18;46.65;;;10.73;;
18752;SDS011;9505;50.882;5.350;2023-04-29T13:39:44;85.55;;;14.90;;
18752;SDS011;9505;50.882;5.350;2023-04-29T13:42:10;70.57;;;13.20;;
18752;SDS011;9505;50.882;5.350;2023-04-29T13:44:36;30.25;;;8.55;;
18752;SDS011;9505;50.882;5.350;2023-04-29T13:47:02;27.05;;;8.88;;
18752;SDS011;9505;50.882;5.350;2023-04-29T13:49:30;91.25;;;14.23;;
18752;SDS011;9505;50.882;5.350;2023-04-29T13:51:55;73.43;;;13.18;;
18752;SDS011;9505;50.882;5.350;2023-04-29T13:54:21;56.95;;;11.30;;
18752;SDS011;9505;50.882;5.350;2023-04-29T13:56:47;43.30;;;10.05;;
18752;SDS011;9505;50.882;5.350;2023-04-29T13:59:13;62.53;;;11.98;;
18752;SDS011;9505;50.882;5.350;2023-04-29T14:01:38;90.65;;;14.30;;
18752;SDS011;9505;50.882;5.350;2023-04-29T14:04:04;62.05;;;11.18;;
18752;SDS011;9505;50.882;5.350;2023-04-29T14:06:30;20.77;;;7.80;;
18752;SDS011;9505;50.882;5.350;2023-04-29T14:08:56;60.20;;;11.25;;
18752;SDS011;9505;50.882;5.350;2023-04-29T14:11:22;70.05;;;11.80;;
18752;SDS011;9505;50.882;5.350;2023-04-29T14:13:48;57.58;;;11.15;;
18752;SDS011;9505;50.882;5.350;2023-04-29T14:16:14;49.38;;;9.68;;
18752;SDS011;9505;50.882;5.350;2023-04-29T14:18:40;54.85;;;11.35;;
18752;SDS011;9505;50.882;5.350;2023-04-29T14:21:06;103.68;;;15.85;;
18752;SDS011;9505;50.882;5.350;2023-04-29T14:23:32;83.05;;;14.23;;
18752;SDS011;9505;50.882;5.350;2023-04-29T14:25:58;42.45;;;11.73;;
18752;SDS011;9505;50.882;5.350;2023-04-29T14:28:23;48.83;;;12.02;;
18752;SDS011;9505;50.882;5.350;2023-04-29T14:30:49;74.80;;;14.43;;
18752;SDS011;9505;50.882;5.350;2023-04-29T14:33:15;79.82;;;14.75;;
18752;SDS011;9505;50.882;5.350;2023-04-29T14:35:40;51.80;;;11.13;;
18752;SDS011;9505;50.882;5.350;2023-04-29T14:38:06;42.42;;;10.80;;
18752;SDS011;9505;50.882;5.350;2023-04-29T14:40:32;62.10;;;13.40;;
18752;SDS011;9505;50.882;5.350;2023-04-29T14:42:58;55.97;;;11.35;;
18752;SDS011;9505;50.882;5.350;2023-04-29T14:45:24;65.97;;;12.23;;
18752;SDS011;9505;50.882;5.350;2023-04-29T14:47:49;29.23;;;9.15;;
18752;SDS011;9505;50.882;5.350;2023-04-29T14:50:15;49.33;;;11.15;;
18752;SDS011;9505;50.882;5.350;2023-04-29T14:52:41;66.25;;;12.48;;
18752;SDS011;9505;50.882;5.350;2023-04-29T14:55:07;76.43;;;12.82;;
18752;SDS011;9505;50.882;5.350;2023-04-29T14:57:33;35.03;;;9.52;;
18752;SDS011;9505;50.882;5.350;2023-04-29T14:59:59;31.95;;;8.95;;
18752;SDS011;9505;50.882;5.350;2023-04-29T15:02:25;65.93;;;12.10;;
18752;SDS011;9505;50.882;5.350;2023-04-29T15:04:51;66.00;;;11.93;;
18752;SDS011;9505;50.882;5.350;2023-04-29T15:07:16;31.83;;;8.57;;
18752;SDS011;9505;50.882;5.350;2023-04-29T15:09:42;24.83;;;8.00;;
18752;SDS011;9505;50.882;5.350;2023-04-29T15:12:08;70.32;;;13.35;;
18752;SDS011;9505;50.882;5.350;2023-04-29T15:14:34;62.42;;;11.65;;